Columbia, SC (29211)

12:12 AM EDT on September 04, 2015 (GMT -0400)
CrossLake | | Change Station
CLOSE
Current Station
Personal Weather Station
Location: Lexington, SC
Elevation: 417 ft
Nearby Weather Stations

Elev 417 ft 34.03 °N, 81.27 °W | Updated 13 minutes ago

Partly Cloudy
Partly Cloudy
73.8 °F
Feels Like 73 °F
N
0.0
Wind Variable Wind from South

Today
High -- | Low -- °F
--% Chance of Precip.
Yesterday
High -- | Low -- °F
Precip. -- in
7:00 AM 7:47 PM
Waning Gibbous, 63% visible
Pressure 29.90 in
Visibility 10.0 miles
Clouds Mostly Cloudy 15000 ft
Heat Index 73 °F
Dew Point 69 °F
Humidity 85%
Rainfall in
Snow Depth Not available.
UV 0 out of 12
Pollen 8.70 out of 12
Air Quality Not available.
Flu Activity Not available.
METAR KCAE 040356Z 25004KT 10SM BKN150 25/22 A2991 RMK AO2 SLP125 T02500222
Pressure 29.90 in
Visibility 10.0 miles
Clouds Mostly Cloudy 15000 ft
Heat Index 73 °F
Dew Point 69 °F
Humidity 85%
Rainfall in
Snow Depth Not available.
UV 0 out of 12
Pollen 8.70 out of 12
Air Quality Not available.
Flu Activity Not available.
METAR KCAE 040356Z 25004KT 10SM BKN150 25/22 A2991 RMK AO2 SLP125 T02500222

10-Day Weather Forecast

×

Almanac

Astronomy

Sep. 04, 2015 Rise Set
Actual Time
Civil Twilight
Nautical Twilight
Astronomical Twilight
Moon
Length of Visible Light
Length of Day
Tomorrow will be .
, % of the Moon is Illuminated

Today's Extremes

State Highs State Lows

Community

WunderPhotos

Upload Photos

1,852,126 photos uploaded!

WunderBlogs® & News

Nearby

Air Quality

  Air Quality AQ Index Pollutant
Not available.

Snow Depth

Station Depth Elevation

Earthquake Activity

City Distance Mag. Time & Date
Minimum magnitude displayed is 2.5.

Coastal Water Temperatures

Place Temperature

Stations

Nearby Weather Stations

Station Location Temp. Windchill Dew Point Humidity Wind Precip. Elev Updated Type